Time;durP1;ratioP1;P1;durP2;ratioP2;P2;SDS_P1;SDS_P2;PMS_P1;PMS_P2;Temp;Humidity;BMP_temperature;BMP_pressure;BME280_temperature;BME280_humidity;BME280_pressure;Samples;Min_cycle;Max_cycle;Signal;HPM_P1;HPM_P2
2023/03/28 00:00:20;;;;;;;0.50;0.30;;;;;;;2.68;nan;101207.59;4994826;28;20044;-46
2023/03/28 00:02:46;;;;;;;0.30;0.30;;;;;;;2.65;nan;101197.25;4999216;28;20076;-46
2023/03/28 00:05:12;;;;;;;1.65;0.38;;;;;;;2.64;nan;101215.47;4995639;28;20192;-49
2023/03/28 00:07:38;;;;;;;0.40;0.28;;;;;;;2.59;nan;101207.75;4987880;28;20038;-46
2023/03/28 00:10:06;;;;;;;1.98;0.40;;;;;;;2.54;nan;101212.16;4988981;28;20048;-47
2023/03/28 00:12:31;;;;;;;0.70;0.30;;;;;;;2.50;nan;101206.19;5001390;28;20045;-46
2023/03/28 00:14:57;;;;;;;0.38;0.20;;;;;;;2.48;nan;101226.13;5000882;28;20038;-47
2023/03/28 00:17:23;;;;;;;2.70;0.47;;;;;;;2.45;nan;101244.34;5004252;28;20053;-47
2023/03/28 00:19:52;;;;;;;0.73;0.47;;;;;;;2.44;nan;101230.53;4997794;28;20060;-47
2023/03/28 00:22:19;;;;;;;0.50;0.50;;;;;;;2.44;nan;101240.91;5002976;28;20050;-46
2023/03/28 00:24:46;;;;;;;1.00;0.38;;;;;;;2.49;nan;101238.22;5000890;28;20471;-46
2023/03/28 00:27:11;;;;;;;0.80;0.50;;;;;;;2.51;nan;101238.19;4997427;28;20060;-46
2023/03/28 00:29:37;;;;;;;1.27;0.50;;;;;;;2.49;nan;101232.19;5002678;28;20048;-47
2023/03/28 00:32:03;;;;;;;2.60;0.60;;;;;;;2.50;nan;101239.94;4994519;28;20040;-46
2023/03/28 00:34:28;;;;;;;0.88;0.40;;;;;;;2.53;nan;101244.22;5000814;28;20164;-48
2023/03/28 00:36:54;;;;;;;0.90;0.30;;;;;;;2.47;nan;101259.94;5003202;28;20034;-46
2023/03/28 00:39:19;;;;;;;0.95;0.35;;;;;;;2.47;nan;101257.34;4999325;28;20034;-48
2023/03/28 00:41:45;;;;;;;1.15;0.40;;;;;;;2.44;nan;101250.44;5001173;28;20063;-48
2023/03/28 00:44:47;;;;;;;1.17;0.45;;;;;;;2.45;nan;101262.53;4995211;28;20182;-46
2023/03/28 00:47:24;;;;;;;0.80;0.43;;;;;;;2.46;nan;101255.63;5000037;28;20049;-46
2023/03/28 00:49:51;;;;;;;1.08;0.40;;;;;;;2.49;nan;101271.16;4998400;28;20053;-46
2023/03/28 00:52:19;;;;;;;0.52;0.32;;;;;;;2.47;nan;101291.09;5005615;28;20037;-46
2023/03/28 00:54:45;;;;;;;0.70;0.57;;;;;;;2.46;nan;101273.78;5003280;28;20051;-46
2023/03/28 00:57:14;;;;;;;1.50;0.40;;;;;;;2.46;nan;101286.78;5010984;28;20090;-47
2023/03/28 00:59:40;;;;;;;1.52;0.95;;;;;;;2.46;nan;101290.22;4997912;28;20058;-48
2023/03/28 01:02:06;;;;;;;0.35;0.35;;;;;;;2.49;nan;101292.78;4990079;28;20405;-48
2023/03/28 01:04:48;;;;;;;1.60;0.50;;;;;;;2.54;nan;101297.91;5000502;28;20045;-48
2023/03/28 01:07:15;;;;;;;2.40;0.40;;;;;;;2.58;nan;101294.38;5003027;28;20049;-46
2023/03/28 01:09:42;;;;;;;3.30;0.57;;;;;;;2.60;nan;101308.22;5001197;28;20082;-48
2023/03/28 01:12:09;;;;;;;2.78;0.63;;;;;;;2.64;nan;101309.91;4997406;28;20040;-48
2023/03/28 01:14:36;;;;;;;0.70;0.50;;;;;;;2.70;nan;101320.19;5000591;28;20043;-46
2023/03/28 01:17:02;;;;;;;0.93;0.47;;;;;;;2.74;nan;101326.19;5000374;28;20560;-48
2023/03/28 01:19:45;;;;;;;3.17;0.70;;;;;;;2.74;nan;101321.84;5008810;28;20038;-47
2023/03/28 01:22:31;;;;;;;2.10;0.93;;;;;;;2.78;nan;101321.81;5009116;28;20037;-48
2023/03/28 01:25:09;;;;;;;1.02;0.60;;;;;;;2.80;nan;101335.66;5000845;28;20052;-47
2023/03/28 01:28:04;;;;;;;1.30;0.65;;;;;;;2.82;nan;101323.44;4999527;28;20051;-48
2023/03/28 01:30:44;;;;;;;1.63;0.70;;;;;;;2.88;nan;101338.97;5004866;28;20033;-48
2023/03/28 01:34:01;;;;;;;0.95;0.60;;;;;;;2.94;nan;101335.41;4992461;28;20028;-47
2023/03/28 01:36:44;;;;;;;0.63;0.43;;;;;;;2.93;nan;101344.97;4982612;28;20475;-47
2023/03/28 01:39:38;;;;;;;3.83;0.73;;;;;;;2.96;nan;101347.47;5002537;28;20033;-48
2023/03/28 01:42:26;;;;;;;1.30;0.40;;;;;;;2.93;nan;101352.75;4995293;28;20069;-46
2023/03/28 01:44:51;;;;;;;0.88;0.55;;;;;;;2.88;nan;101350.22;4999550;28;20030;-47
2023/03/28 01:47:36;;;;;;;4.18;1.25;;;;;;;2.82;nan;101349.44;4979473;28;20034;-47
2023/03/28 01:50:07;;;;;;;0.60;0.47;;;;;;;2.74;nan;101353.03;4986172;28;20048;-48
2023/03/28 01:52:53;;;;;;;3.47;0.93;;;;;;;2.72;nan;101361.75;4989893;28;20043;-48
2023/03/28 01:55:36;;;;;;;2.22;1.05;;;;;;;2.69;nan;101362.63;4996294;28;20111;-49
2023/03/28 01:58:11;;;;;;;2.45;0.73;;;;;;;2.65;nan;101353.16;4991438;28;20062;-48
2023/03/28 02:00:44;;;;;;;4.72;1.38;;;;;;;2.62;nan;101361.03;4991588;28;30648;-48
2023/03/28 02:03:36;;;;;;;3.20;0.70;;;;;;;2.62;nan;101363.63;4990135;28;20571;-47
2023/03/28 02:06:07;;;;;;;3.70;0.57;;;;;;;2.61;nan;101369.69;4999040;28;20127;-46
2023/03/28 02:08:36;;;;;;;3.45;0.90;;;;;;;2.58;nan;101377.53;4999440;28;20030;-46
2023/03/28 02:11:02;;;;;;;1.77;0.70;;;;;;;2.56;nan;101381.88;5001676;28;20635;-46
2023/03/28 02:13:52;;;;;;;3.22;1.02;;;;;;;2.53;nan;101377.59;5003837;28;20057;-46
2023/03/28 02:16:21;;;;;;;2.90;0.98;;;;;;;2.55;nan;101385.38;5003593;28;20562;-46
2023/03/28 02:18:52;;;;;;;1.77;0.73;;;;;;;2.54;nan;101391.44;5003375;28;20080;-47
2023/03/28 02:21:27;;;;;;;5.50;1.17;;;;;;;2.52;nan;101388.88;4998251;28;20129;-46
2023/03/28 02:23:55;;;;;;;6.60;2.10;;;;;;;2.50;nan;101384.56;5005969;28;20052;-47
2023/03/28 02:26:21;;;;;;;4.18;0.80;;;;;;;2.49;nan;101401.06;5005024;28;20049;-47
2023/03/28 02:28:49;;;;;;;4.32;1.10;;;;;;;2.47;nan;101395.00;5006574;28;20083;-48
2023/03/28 02:31:15;;;;;;;0.77;0.60;;;;;;;2.42;nan;101408.91;5000479;28;20041;-46
2023/03/28 02:33:46;;;;;;;1.38;0.65;;;;;;;2.37;nan;101405.50;5006211;28;20096;-47
2023/03/28 02:36:30;;;;;;;1.77;0.90;;;;;;;2.36;nan;101414.19;5000918;28;20048;-47
2023/03/28 02:39:01;;;;;;;1.83;0.90;;;;;;;2.35;nan;101404.66;5003218;28;20058;-46
2023/03/28 02:41:46;;;;;;;3.75;0.80;;;;;;;2.34;nan;101426.34;5008592;28;20381;-47
2023/03/28 02:44:18;;;;;;;1.58;0.90;;;;;;;2.31;nan;101422.91;5001415;28;20554;-46
2023/03/28 02:47:18;;;;;;;1.08;0.70;;;;;;;2.24;nan;101423.00;5010409;28;20062;-47
2023/03/28 02:49:55;;;;;;;4.00;0.70;;;;;;;2.20;nan;101433.41;4962504;28;20579;-48
2023/03/28 02:52:49;;;;;;;2.28;0.90;;;;;;;2.25;nan;101431.63;4998348;28;20114;-47
2023/03/28 02:55:37;;;;;;;1.75;0.80;;;;;;;2.27;nan;101433.31;4998868;28;20034;-47
2023/03/28 02:58:22;;;;;;;2.28;1.33;;;;;;;2.34;nan;101447.13;5001326;28;20089;-48
2023/03/28 03:00:48;;;;;;;2.15;0.80;;;;;;;2.38;nan;101438.41;4993384;28;20054;-47
2023/03/28 03:03:15;;;;;;;1.25;0.88;;;;;;;2.38;nan;101443.59;5001324;28;20041;-47
2023/03/28 03:05:41;;;;;;;2.05;0.85;;;;;;;2.41;nan;101461.75;5000254;28;20071;-46
2023/03/28 03:08:07;;;;;;;3.50;0.70;;;;;;;2.48;nan;101454.72;5007320;28;20424;-49
2023/03/28 03:10:32;;;;;;;2.17;0.82;;;;;;;2.50;nan;101462.50;4997322;28;20040;-48
2023/03/28 03:12:58;;;;;;;1.80;0.70;;;;;;;2.53;nan;101457.28;5003414;28;20037;-47
2023/03/28 03:15:24;;;;;;;1.65;0.95;;;;;;;2.59;nan;101463.25;4996772;28;20078;-47
2023/03/28 03:17:51;;;;;;;3.05;1.00;;;;;;;2.62;nan;101462.38;4990716;28;20077;-47
2023/03/28 03:20:17;;;;;;;4.43;1.23;;;;;;;2.61;nan;101468.44;4995879;28;20040;-47
2023/03/28 03:22:43;;;;;;;4.25;0.85;;;;;;;2.66;nan;101476.16;4999636;28;20029;-49
2023/03/28 03:25:09;;;;;;;1.15;0.65;;;;;;;2.68;nan;101475.25;5005866;28;20388;-48
2023/03/28 03:27:36;;;;;;;1.52;0.57;;;;;;;2.65;nan;101475.28;5005862;28;20048;-47
2023/03/28 03:30:03;;;;;;;2.72;1.08;;;;;;;2.64;nan;101488.31;5001881;28;20058;-46
2023/03/28 03:32:28;;;;;;;2.83;1.05;;;;;;;2.62;nan;101477.97;5004923;28;20896;-48
2023/03/28 03:34:54;;;;;;;1.73;0.90;;;;;;;2.59;nan;101486.63;5006502;28;20514;-47
2023/03/28 03:37:19;;;;;;;2.60;1.05;;;;;;;2.56;nan;101491.88;4996969;28;20032;-46
2023/03/28 03:39:45;;;;;;;1.60;1.00;;;;;;;2.55;nan;101492.75;4999743;28;20086;-49
2023/03/28 03:42:12;;;;;;;1.65;0.88;;;;;;;2.48;nan;101508.44;5004805;28;20097;-48
2023/03/28 03:44:37;;;;;;;5.00;1.00;;;;;;;2.50;nan;101502.34;5002525;28;20139;-47
2023/03/28 03:47:04;;;;;;;2.75;1.00;;;;;;;2.50;nan;101504.06;4998461;28;20137;-48
2023/03/28 03:49:29;;;;;;;1.70;0.60;;;;;;;2.54;nan;101516.16;4996770;28;20067;-46
2023/03/28 03:51:55;;;;;;;1.35;0.77;;;;;;;2.53;nan;101517.03;4995212;28;20047;-46
2023/03/28 03:54:20;;;;;;;4.50;1.42;;;;;;;2.58;nan;101517.84;5001764;28;20102;-49
2023/03/28 03:56:47;;;;;;;2.08;0.80;;;;;;;2.58;nan;101513.50;4998424;28;20034;-48
2023/03/28 03:59:13;;;;;;;4.88;1.17;;;;;;;2.54;nan;101505.75;4999175;28;20062;-49
2023/03/28 04:01:40;;;;;;;1.38;0.80;;;;;;;2.49;nan;101512.75;4994746;28;20040;-48
2023/03/28 04:04:08;;;;;;;5.47;1.10;;;;;;;2.43;nan;101516.25;4995950;28;20070;-47
2023/03/28 04:06:35;;;;;;;1.48;0.93;;;;;;;2.40;nan;101526.72;5005208;28;20156;-49
2023/03/28 04:09:00;;;;;;;1.63;0.95;;;;;;;2.37;nan;101519.78;5001065;28;20108;-47
2023/03/28 04:11:26;;;;;;;2.50;1.15;;;;;;;2.36;nan;101523.28;5000591;28;20042;-49
2023/03/28 04:13:51;;;;;;;5.20;1.30;;;;;;;2.36;nan;101532.81;4993161;28;20421;-46
2023/03/28 04:16:19;;;;;;;2.67;0.88;;;;;;;2.33;nan;101527.66;4996049;28;20398;-49
2023/03/28 04:18:49;;;;;;;1.90;1.20;;;;;;;2.31;nan;101534.59;5000803;28;20157;-46
2023/03/28 04:21:16;;;;;;;4.97;1.23;;;;;;;2.28;nan;101536.34;4997195;28;20443;-48
2023/03/28 04:23:42;;;;;;;1.83;1.00;;;;;;;2.26;nan;101545.03;4997133;28;20030;-48
2023/03/28 04:26:09;;;;;;;6.43;1.75;;;;;;;2.22;nan;101536.41;5003147;28;20068;-47
2023/03/28 04:28:34;;;;;;;3.38;1.10;;;;;;;2.19;nan;101540.78;5000369;28;20071;-46
2023/03/28 04:31:00;;;;;;;5.22;1.40;;;;;;;2.19;nan;101545.97;4993583;28;21010;-47
2023/03/28 04:33:29;;;;;;;1.73;1.08;;;;;;;2.18;nan;101545.09;5002293;28;20050;-49
2023/03/28 04:35:59;;;;;;;5.00;1.08;;;;;;;2.16;nan;101551.19;4995188;28;20045;-47
2023/03/28 04:38:30;;;;;;;2.13;1.13;;;;;;;2.15;nan;101546.88;5000446;28;20494;-47
2023/03/28 04:40:56;;;;;;;1.63;0.68;;;;;;;2.13;nan;101560.75;4984367;28;20050;-47
2023/03/28 04:43:29;;;;;;;3.67;1.27;;;;;;;2.15;nan;101560.72;5007740;28;20612;-47
2023/03/28 04:45:55;;;;;;;2.63;1.48;;;;;;;2.17;nan;101571.09;5005051;28;20517;-47
2023/03/28 04:48:22;;;;;;;3.35;1.30;;;;;;;2.16;nan;101569.38;4999415;28;20076;-47
2023/03/28 04:50:48;;;;;;;2.08;0.98;;;;;;;2.11;nan;101565.06;4997448;28;20641;-47
2023/03/28 04:53:14;;;;;;;3.30;1.20;;;;;;;2.12;nan;101572.00;4992678;28;20042;-47
2023/03/28 04:55:42;;;;;;;5.43;1.40;;;;;;;2.14;nan;101577.16;5000718;28;20037;-46
2023/03/28 04:58:09;;;;;;;2.90;1.27;;;;;;;2.14;nan;101590.16;4996243;28;20705;-49
2023/03/28 05:00:35;;;;;;;3.22;1.65;;;;;;;2.15;nan;101594.47;5003414;28;20073;-48
2023/03/28 05:03:03;;;;;;;3.45;1.60;;;;;;;2.16;nan;101597.94;5000735;28;20052;-47
2023/03/28 05:05:30;;;;;;;2.40;1.17;;;;;;;2.13;nan;101599.69;4998039;28;20085;-48
2023/03/28 05:07:57;;;;;;;2.47;1.15;;;;;;;2.15;nan;101598.81;4998812;28;20091;-48
2023/03/28 05:10:23;;;;;;;6.18;1.40;;;;;;;2.17;nan;101610.06;5007894;28;20047;-48
2023/03/28 05:12:49;;;;;;;8.75;3.45;;;;;;;2.21;nan;101622.13;5007080;28;20552;-47
2023/03/28 05:15:14;;;;;;;3.47;1.10;;;;;;;2.23;nan;101609.97;5008242;28;20044;-48
2023/03/28 05:17:40;;;;;;;3.58;1.17;;;;;;;2.25;nan;101634.19;4998918;28;20049;-49
2023/03/28 05:20:08;;;;;;;2.58;1.15;;;;;;;2.25;nan;101629.00;5010944;28;20075;-48
2023/03/28 05:22:35;;;;;;;2.30;1.05;;;;;;;2.25;nan;101629.88;5006686;28;20049;-48
2023/03/28 05:25:00;;;;;;;4.57;1.30;;;;;;;2.26;nan;101635.94;5008145;28;20051;-47
2023/03/28 05:27:26;;;;;;;2.72;1.13;;;;;;;2.28;nan;101635.03;5008640;28;20055;-47
2023/03/28 05:29:52;;;;;;;1.98;1.23;;;;;;;2.27;nan;101642.84;5004079;28;20054;-49
2023/03/28 05:32:17;;;;;;;2.90;1.00;;;;;;;2.30;nan;101653.22;5005413;28;20045;-47
2023/03/28 05:34:43;;;;;;;5.00;1.00;;;;;;;2.32;nan;101648.88;5004294;28;20057;-47
2023/03/28 05:37:08;;;;;;;3.40;1.30;;;;;;;2.32;nan;101651.47;5009067;28;20639;-48
2023/03/28 05:39:34;;;;;;;3.05;1.05;;;;;;;2.34;nan;101651.44;5005586;28;20069;-48
2023/03/28 05:42:00;;;;;;;1.92;0.80;;;;;;;2.37;nan;101665.25;5005426;28;20093;-48
2023/03/28 05:44:25;;;;;;;3.75;1.42;;;;;;;2.42;nan;101668.69;5002423;28;20426;-48
2023/03/28 05:46:50;;;;;;;3.53;1.10;;;;;;;2.42;nan;101679.09;5002984;28;20143;-51
2023/03/28 05:49:16;;;;;;;5.57;0.98;;;;;;;2.42;nan;101668.69;5000309;28;20054;-47
2023/03/28 05:51:41;;;;;;;4.47;1.35;;;;;;;2.43;nan;101670.41;5005952;28;20050;-49
2023/03/28 05:54:07;;;;;;;9.68;1.27;;;;;;;2.46;nan;101663.47;5013410;28;20076;-49
2023/03/28 05:56:34;;;;;;;4.85;1.30;;;;;;;2.47;nan;101673.00;5006765;28;20053;-47
2023/03/28 05:59:00;;;;;;;6.20;1.70;;;;;;;2.51;nan;101675.53;5013132;28;20063;-49
2023/03/28 06:01:27;;;;;;;2.60;1.58;;;;;;;2.53;nan;101691.97;5001627;28;20128;-48
2023/03/28 06:03:54;;;;;;;5.65;1.67;;;;;;;2.59;nan;101686.72;5009157;28;20070;-49
2023/03/28 06:06:19;;;;;;;2.92;1.02;;;;;;;2.56;nan;101696.28;5003164;28;20539;-49
2023/03/28 06:08:45;;;;;;;5.60;2.35;;;;;;;2.58;nan;101704.94;5006441;28;20056;-50
2023/03/28 06:11:12;;;;;;;2.30;1.00;;;;;;;2.61;nan;101709.22;5000920;28;20037;-49
2023/03/28 06:13:37;;;;;;;3.28;1.08;;;;;;;2.63;nan;101695.38;5003282;28;20047;-49
2023/03/28 06:16:03;;;;;;;5.32;1.33;;;;;;;2.66;nan;101705.72;5005974;28;20046;-49
2023/03/28 06:18:28;;;;;;;4.57;1.10;;;;;;;2.66;nan;101703.09;5012311;28;20119;-48
2023/03/28 06:20:54;;;;;;;4.95;0.98;;;;;;;2.70;nan;101717.81;5007261;28;20538;-48
2023/03/28 06:23:20;;;;;;;2.20;1.02;;;;;;;2.69;nan;101717.84;5007750;28;20047;-47
2023/03/28 06:25:45;;;;;;;4.80;1.42;;;;;;;2.70;nan;101719.56;5009414;28;20052;-48
2023/03/28 06:28:11;;;;;;;2.38;0.85;;;;;;;2.69;nan;101718.69;5004670;28;20062;-48
2023/03/28 06:30:38;;;;;;;3.10;1.08;;;;;;;2.71;nan;101727.31;5005544;28;20057;-50
2023/03/28 06:33:05;;;;;;;2.53;1.13;;;;;;;2.73;nan;101735.97;5007342;28;20140;-48
2023/03/28 06:35:31;;;;;;;3.78;0.98;;;;;;;2.79;nan;101744.59;5005189;28;20052;-53
2023/03/28 06:37:57;;;;;;;2.25;0.90;;;;;;;2.81;nan;101732.44;5008531;28;20058;-52
2023/03/28 06:40:23;;;;;;;2.90;1.15;;;;;;;2.84;nan;101732.41;5006839;28;20472;-47
2023/03/28 06:42:48;;;;;;;1.75;1.10;;;;;;;2.91;nan;101736.69;5013743;28;20109;-47
2023/03/28 06:45:14;;;;;;;1.58;0.93;;;;;;;2.93;nan;101742.75;5008365;28;20045;-48
2023/03/28 06:47:39;;;;;;;3.92;1.02;;;;;;;2.98;nan;101777.34;5007453;28;20177;-47
2023/03/28 06:50:06;;;;;;;4.78;1.02;;;;;;;2.97;nan;101764.34;5004058;28;20045;-49
2023/03/28 06:52:32;;;;;;;3.63;0.80;;;;;;;2.99;nan;101757.41;5009857;28;20403;-49
2023/03/28 06:54:58;;;;;;;2.15;0.65;;;;;;;3.00;nan;101759.97;5003790;28;20495;-49
2023/03/28 06:57:24;;;;;;;2.53;1.30;;;;;;;3.07;nan;101762.53;5011243;28;20044;-47
2023/03/28 06:59:51;;;;;;;1.15;0.70;;;;;;;3.09;nan;101797.19;5013590;28;20145;-48
2023/03/28 07:02:17;;;;;;;2.10;0.77;;;;;;;3.10;nan;101765.97;5010129;28;20046;-49
2023/03/28 07:04:42;;;;;;;5.15;1.63;;;;;;;3.15;nan;101776.31;5004473;28;20377;-48
2023/03/28 07:07:08;;;;;;;3.92;1.48;;;;;;;3.17;nan;101782.38;5011934;28;20067;-47
2023/03/28 07:09:35;;;;;;;4.32;1.80;;;;;;;3.17;nan;101795.38;5006269;28;20099;-48
2023/03/28 07:12:01;;;;;;;3.30;0.70;;;;;;;3.24;nan;101783.16;5006327;28;20418;-48
2023/03/28 07:14:26;;;;;;;2.00;1.15;;;;;;;3.27;nan;101789.19;5009472;28;20584;-47
2023/03/28 07:16:52;;;;;;;1.20;0.70;;;;;;;3.32;nan;101807.38;4999836;28;20130;-49
2023/03/28 07:19:17;;;;;;;3.05;0.95;;;;;;;3.37;nan;101794.31;5011695;28;20059;-47
2023/03/28 07:21:43;;;;;;;4.47;0.90;;;;;;;3.33;nan;101802.16;5009278;28;20443;-47
2023/03/28 07:24:08;;;;;;;1.10;0.60;;;;;;;3.38;nan;101855.88;5009839;28;20409;-49
2023/03/28 07:26:34;;;;;;;3.78;1.08;;;;;;;3.51;nan;101813.25;5010104;28;20078;-50
2023/03/28 07:28:59;;;;;;;3.45;0.93;;;;;;;3.67;nan;101803.50;5012398;28;20161;-50
2023/03/28 07:31:25;;;;;;;3.00;0.80;;;;;;;3.75;nan;101821.63;5016981;28;20501;-48
2023/03/28 07:33:51;;;;;;;2.97;0.80;;;;;;;3.74;nan;101857.22;5005100;28;20056;-51
2023/03/28 07:36:20;;;;;;;2.03;0.80;;;;;;;3.74;nan;101809.50;5002699;28;20033;-50
2023/03/28 07:38:46;;;;;;;3.47;1.00;;;;;;;3.76;nan;101825.97;5009854;28;20061;-51
2023/03/28 07:41:13;;;;;;;6.50;1.30;;;;;;;3.79;nan;101813.75;5010956;28;20522;-49
2023/03/28 07:43:38;;;;;;;2.38;0.70;;;;;;;3.79;nan;101823.31;5014476;28;20380;-49
2023/03/28 07:46:14;;;;;;;3.05;0.85;;;;;;;3.72;nan;101832.06;5012627;28;20050;-50
2023/03/28 07:48:41;;;;;;;4.47;0.93;;;;;;;3.74;nan;101825.09;5007572;28;20054;-48
2023/03/28 07:51:08;;;;;;;0.82;0.55;;;;;;;3.74;nan;101830.31;5004270;28;20050;-49
2023/03/28 07:53:36;;;;;;;1.73;0.90;;;;;;;3.84;nan;101838.88;5007738;28;20136;-49
2023/03/28 07:56:02;;;;;;;7.75;1.20;;;;;;;3.85;nan;101844.09;5002951;28;20041;-50
2023/03/28 07:58:28;;;;;;;3.22;0.80;;;;;;;3.81;nan;101858.03;5007180;28;21220;-48
2023/03/28 08:00:55;;;;;;;0.82;0.60;;;;;;;3.88;nan;101838.81;5003375;28;20512;-48
2023/03/28 08:03:24;;;;;;;2.28;1.00;;;;;;;4.03;nan;101870.78;5006589;28;20067;-49
2023/03/28 08:05:52;;;;;;;12.15;1.73;;;;;;;3.89;nan;101856.19;5009151;28;20035;-49
2023/03/28 08:08:19;;;;;;;3.95;0.70;;;;;;;3.71;nan;101878.09;5007661;28;20056;-49
2023/03/28 08:10:45;;;;;;;1.77;1.00;;;;;;;3.54;nan;101870.47;5012301;28;20052;-49
2023/03/28 08:13:11;;;;;;;4.65;1.33;;;;;;;3.43;nan;101875.78;5011853;28;20050;-48
2023/03/28 08:15:37;;;;;;;1.70;0.77;;;;;;;3.43;nan;101877.50;5009821;28;20122;-50
2023/03/28 08:18:02;;;;;;;4.53;1.30;;;;;;;3.38;nan;101905.31;5008713;28;20428;-48
2023/03/28 08:20:28;;;;;;;4.38;1.08;;;;;;;3.27;nan;101921.84;5002794;28;20145;-49
2023/03/28 08:22:54;;;;;;;4.47;1.40;;;;;;;3.18;nan;101903.75;5009796;28;20056;-48
2023/03/28 08:25:19;;;;;;;2.20;1.10;;;;;;;3.10;nan;101918.56;5008579;28;20484;-48
2023/03/28 08:27:45;;;;;;;2.00;1.08;;;;;;;3.11;nan;101900.31;5014321;28;20097;-49
2023/03/28 08:30:10;;;;;;;4.75;1.17;;;;;;;3.16;nan;101889.88;5012396;28;20048;-48
2023/03/28 08:32:36;;;;;;;3.38;1.35;;;;;;;3.20;nan;101923.66;5009839;28;20751;-49
2023/03/28 08:35:01;;;;;;;1.88;1.02;;;;;;;3.28;nan;101900.19;5009038;28;20107;-50
2023/03/28 08:37:28;;;;;;;1.85;0.90;;;;;;;3.29;nan;101914.91;5012099;28;20050;-49
2023/03/28 08:39:54;;;;;;;4.28;2.50;;;;;;;3.24;nan;101921.91;5011374;28;20049;-48
2023/03/28 08:42:31;;;;;;;3.33;1.08;;;;;;;3.28;nan;101907.97;5012611;28;20044;-49
2023/03/28 08:45:18;;;;;;;3.28;0.75;;;;;;;3.32;nan;101929.66;5006960;28;20509;-49
2023/03/28 08:48:06;;;;;;;1.58;0.90;;;;;;;3.38;nan;101913.97;5008696;28;20574;-48
2023/03/28 08:50:41;;;;;;;3.75;1.23;;;;;;;3.43;nan;101956.44;5003997;28;20034;-49
2023/03/28 08:53:17;;;;;;;2.65;1.10;;;;;;;3.45;nan;101940.78;5011879;28;20051;-48
2023/03/28 08:55:43;;;;;;;2.88;1.00;;;;;;;3.45;nan;101922.59;5009516;28;20105;-49
2023/03/28 08:58:20;;;;;;;4.75;1.38;;;;;;;3.54;nan;101930.31;5005505;28;20616;-48
2023/03/28 09:00:48;;;;;;;5.07;1.10;;;;;;;3.60;nan;101938.06;5004891;28;20041;-47
2023/03/28 09:03:21;;;;;;;3.25;0.90;;;;;;;3.65;nan;101957.09;5010530;28;20553;-48
2023/03/28 09:06:03;;;;;;;2.17;0.93;;;;;;;3.77;nan;101955.25;5007323;28;20043;-48
2023/03/28 09:08:41;;;;;;;4.15;1.00;;;;;;;3.79;nan;101948.31;5009508;28;20049;-48
2023/03/28 09:11:09;;;;;;;2.65;0.90;;;;;;;3.70;nan;101974.44;5007601;28;20039;-47
2023/03/28 09:13:49;;;;;;;4.43;1.20;;;;;;;3.74;nan;101955.28;5005471;28;20508;-49
2023/03/28 09:16:23;;;;;;;2.08;1.10;;;;;;;3.81;nan;101983.00;5005106;28;20065;-47
2023/03/28 09:19:20;;;;;;;2.75;0.95;;;;;;;3.74;nan;102002.16;4998619;28;20067;-48
2023/03/28 09:22:02;;;;;;;2.15;1.00;;;;;;;3.66;nan;102007.41;4994986;28;20090;-48
2023/03/28 09:24:40;;;;;;;2.05;1.08;;;;;;;3.66;nan;101970.97;5005224;28;20136;-49
2023/03/28 09:27:18;;;;;;;4.32;1.48;;;;;;;3.73;nan;101963.97;5003543;28;20055;-47
2023/03/28 09:29:45;;;;;;;3.00;1.00;;;;;;;3.80;nan;101976.06;5004029;28;20071;-47
2023/03/28 09:32:33;;;;;;;1.42;0.75;;;;;;;3.83;nan;101980.38;5008073;28;20494;-47
2023/03/28 09:35:00;;;;;;;1.85;0.73;;;;;;;3.92;nan;101981.16;4999928;28;20501;-49
2023/03/28 09:37:30;;;;;;;2.15;1.00;;;;;;;3.76;nan;101995.19;5006591;28;20043;-47
2023/03/28 09:40:35;;;;;;;4.90;1.75;;;;;;;3.78;nan;101967.41;5009743;28;20028;-48
2023/03/28 09:43:20;;;;;;;2.35;1.25;;;;;;;3.88;nan;101994.22;5008638;28;20053;-47
2023/03/28 09:46:02;;;;;;;3.55;1.40;;;;;;;3.84;nan;102024.63;4997822;28;20103;-49
2023/03/28 09:48:34;;;;;;;3.20;1.15;;;;;;;3.80;nan;102036.81;5005836;28;20029;-48
2023/03/28 09:51:00;;;;;;;2.72;0.52;;;;;;;3.77;nan;102004.72;5003537;28;20196;-48
2023/03/28 09:53:35;;;;;;;3.63;0.88;;;;;;;3.72;nan;102009.09;5007759;28;20643;-48
2023/03/28 09:56:16;;;;;;;3.08;0.77;;;;;;;3.68;nan;102010.03;5007543;28;20045;-48
2023/03/28 09:59:01;;;;;;;2.92;0.85;;;;;;;3.79;nan;102016.84;5005610;28;20066;-48
2023/03/28 10:01:46;;;;;;;2.38;0.70;;;;;;;3.82;nan;102018.59;5008715;28;20148;-48
2023/03/28 10:04:31;;;;;;;2.55;0.70;;;;;;;3.88;nan;102031.53;5002523;28;20425;-47
2023/03/28 10:07:08;;;;;;;1.05;0.55;;;;;;;3.88;nan;102030.69;5005988;28;20136;-47
2023/03/28 10:09:46;;;;;;;0.65;0.50;;;;;;;3.79;nan;102026.41;5009813;28;20057;-50
2023/03/28 10:12:32;;;;;;;2.40;0.80;;;;;;;3.75;nan;102035.13;5003290;28;20054;-47
2023/03/28 10:14:57;;;;;;;3.47;0.63;;;;;;;3.68;nan;102030.84;5001890;28;20047;-49
2023/03/28 10:17:36;;;;;;;2.42;1.55;;;;;;;3.81;nan;102040.28;4996320;28;20424;-47
2023/03/28 10:20:05;;;;;;;2.45;0.93;;;;;;;3.95;nan;102042.75;4998202;28;22727;-48
2023/03/28 10:22:37;;;;;;;1.58;0.70;;;;;;;4.03;nan;102040.97;4989829;28;20075;-49
2023/03/28 10:25:06;;;;;;;1.58;0.77;;;;;;;3.91;nan;102036.72;5001845;28;20049;-51
2023/03/28 10:27:36;;;;;;;3.97;0.80;;;;;;;3.91;nan;102043.69;4993766;28;20061;-48
2023/03/28 10:30:28;;;;;;;1.42;0.80;;;;;;;4.03;nan;102074.81;5000403;28;20046;-48
2023/03/28 10:33:16;;;;;;;2.72;1.20;;;;;;;4.16;nan;102065.13;4993760;28;20047;-48
2023/03/28 10:35:56;;;;;;;2.60;0.68;;;;;;;4.24;nan;102055.50;4997014;28;20032;-48
2023/03/28 10:38:24;;;;;;;1.80;1.00;;;;;;;4.28;nan;102082.38;4999223;28;20524;-48
2023/03/28 10:41:02;;;;;;;1.70;0.80;;;;;;;4.26;nan;102072.00;5008479;28;20034;-49
2023/03/28 10:43:35;;;;;;;0.63;0.47;;;;;;;4.16;nan;102057.31;4999516;28;20047;-50
2023/03/28 10:46:13;;;;;;;0.63;0.57;;;;;;;4.13;nan;102073.00;5002418;28;20070;-49
2023/03/28 10:48:40;;;;;;;2.92;0.80;;;;;;;4.27;nan;102073.72;4998951;28;20051;-49
2023/03/28 10:51:14;;;;;;;2.65;0.90;;;;;;;4.41;nan;102070.09;5006838;28;20450;-49
2023/03/28 10:54:01;;;;;;;3.47;1.17;;;;;;;4.52;nan;102081.28;5011516;28;20031;-50
2023/03/28 10:56:37;;;;;;;2.05;0.75;;;;;;;4.56;nan;102103.84;5012444;28;20045;-48
2023/03/28 10:59:20;;;;;;;2.95;0.90;;;;;;;4.47;nan;102083.06;5002558;28;20109;-48
2023/03/28 11:02:04;;;;;;;2.72;1.13;;;;;;;4.52;nan;102083.88;5008217;28;20089;-49
2023/03/28 11:04:39;;;;;;;1.50;0.90;;;;;;;4.57;nan;102099.47;5011586;28;20050;-49
2023/03/28 11:07:16;;;;;;;1.92;0.88;;;;;;;4.67;nan;102081.97;5008861;28;20127;-50
2023/03/28 11:10:06;;;;;;;1.40;0.80;;;;;;;4.55;nan;102099.50;5010255;28;20410;-48
2023/03/28 11:12:45;;;;;;;1.58;0.80;;;;;;;4.60;nan;102088.16;5003710;28;20504;-49
2023/03/28 11:15:31;;;;;;;5.55;0.88;;;;;;;4.52;nan;102099.53;5005626;28;20049;-48
2023/03/28 11:18:21;;;;;;;4.55;0.95;;;;;;;4.61;nan;102085.53;5009284;28;20060;-50
2023/03/28 11:21:13;;;;;;;1.45;0.85;;;;;;;4.78;nan;102087.94;4995255;28;20117;-47
2023/03/28 11:23:44;;;;;;;1.83;0.82;;;;;;;4.88;nan;102081.75;4990167;28;20066;-48
2023/03/28 11:26:24;;;;;;;1.50;0.70;;;;;;;4.96;nan;102107.72;4996126;28;20056;-48
2023/03/28 11:29:01;;;;;;;1.95;1.25;;;;;;;5.04;nan;102105.03;4993040;28;20124;-51
2023/03/28 11:31:59;;;;;;;8.05;2.90;;;;;;;5.00;nan;102100.72;4994693;28;20060;-49
2023/03/28 11:34:31;;;;;;;1.38;0.70;;;;;;;5.06;nan;102087.63;5002606;28;20025;-49
2023/03/28 11:37:12;;;;;;;1.73;0.80;;;;;;;4.95;nan;102110.34;5001626;28;20044;-52
2023/03/28 11:39:51;;;;;;;2.53;0.90;;;;;;;4.95;nan;102086.88;4996876;28;20124;-49
2023/03/28 11:42:39;;;;;;;3.85;0.95;;;;;;;5.04;nan;102115.47;4996921;28;20063;-49
2023/03/28 11:45:13;;;;;;;3.35;0.93;;;;;;;5.00;nan;102091.13;4999444;28;20108;-49
2023/03/28 11:47:51;;;;;;;3.40;0.95;;;;;;;5.12;nan;102092.72;5000173;28;20038;-48
2023/03/28 11:50:27;;;;;;;1.58;0.70;;;;;;;5.17;nan;102101.38;4993375;28;20042;-47
2023/03/28 11:53:06;;;;;;;2.92;1.02;;;;;;;5.33;nan;102101.16;4992391;28;20026;-48
2023/03/28 11:55:38;;;;;;;3.08;0.80;;;;;;;5.39;nan;102087.16;4992163;28;20044;-49
2023/03/28 11:58:03;;;;;;;1.98;1.20;;;;;;;5.43;nan;102088.84;4994195;28;20111;-48
2023/03/28 12:00:35;;;;;;;2.20;1.00;;;;;;;5.55;nan;102088.66;4978741;28;20044;-49
2023/03/28 12:03:33;;;;;;;2.50;0.95;;;;;;;5.55;nan;102079.94;5004427;28;20450;-50
2023/03/28 12:06:26;;;;;;;1.30;0.75;;;;;;;5.49;nan;102078.31;4999861;28;20041;-48
2023/03/28 12:09:11;;;;;;;3.25;1.05;;;;;;;5.66;nan;102088.50;4999019;28;20034;-49
2023/03/28 12:11:41;;;;;;;2.58;0.93;;;;;;;5.69;nan;102106.72;4995344;28;20057;-50